sensor_id;sensor_type;location;lat;lon;timestamp;P1;durP1;ratioP1;P2;durP2;ratioP2
31182;SDS011;17813;0.000;0.000;2022-11-02T00:02:16;4.60;;;3.57;;
31182;SDS011;17813;0.000;0.000;2022-11-02T00:04:43;3.63;;;3.13;;
31182;SDS011;17813;0.000;0.000;2022-11-02T00:07:11;5.93;;;3.10;;
31182;SDS011;17813;0.000;0.000;2022-11-02T00:09:38;3.40;;;3.03;;
31182;SDS011;17813;0.000;0.000;2022-11-02T00:12:05;3.63;;;3.00;;
31182;SDS011;17813;0.000;0.000;2022-11-02T00:14:34;5.23;;;3.70;;
31182;SDS011;17813;0.000;0.000;2022-11-02T00:17:01;4.60;;;3.97;;
31182;SDS011;17813;0.000;0.000;2022-11-02T00:19:29;8.93;;;4.10;;
31182;SDS011;17813;0.000;0.000;2022-11-02T00:21:57;4.67;;;3.10;;
31182;SDS011;17813;0.000;0.000;2022-11-02T00:24:29;3.00;;;2.70;;
31182;SDS011;17813;0.000;0.000;2022-11-02T00:26:59;4.90;;;4.03;;
31182;SDS011;17813;0.000;0.000;2022-11-02T00:29:26;5.80;;;3.60;;
31182;SDS011;17813;0.000;0.000;2022-11-02T00:31:54;4.23;;;3.63;;
31182;SDS011;17813;0.000;0.000;2022-11-02T00:34:21;3.63;;;3.00;;
31182;SDS011;17813;0.000;0.000;2022-11-02T00:36:49;3.30;;;2.83;;
31182;SDS011;17813;0.000;0.000;2022-11-02T00:39:17;8.80;;;2.60;;
31182;SDS011;17813;0.000;0.000;2022-11-02T00:41:45;11.97;;;2.90;;
31182;SDS011;17813;0.000;0.000;2022-11-02T00:44:15;11.33;;;3.40;;
31182;SDS011;17813;0.000;0.000;2022-11-02T00:46:42;62.40;;;4.70;;
31182;SDS011;17813;0.000;0.000;2022-11-02T00:49:09;4.03;;;2.67;;
31182;SDS011;17813;0.000;0.000;2022-11-02T00:51:37;89.70;;;5.63;;
31182;SDS011;17813;0.000;0.000;2022-11-02T00:54:04;50.60;;;4.43;;
31182;SDS011;17813;0.000;0.000;2022-11-02T00:56:31;20.07;;;2.93;;
31182;SDS011;17813;0.000;0.000;2022-11-02T00:58:59;7.60;;;2.60;;
31182;SDS011;17813;0.000;0.000;2022-11-02T01:01:26;5.13;;;3.10;;
31182;SDS011;17813;0.000;0.000;2022-11-02T01:03:54;2.73;;;2.50;;
31182;SDS011;17813;0.000;0.000;2022-11-02T01:06:23;2.97;;;2.67;;
31182;SDS011;17813;0.000;0.000;2022-11-02T01:08:50;3.03;;;2.73;;
31182;SDS011;17813;0.000;0.000;2022-11-02T01:11:19;10.37;;;3.00;;
31182;SDS011;17813;0.000;0.000;2022-11-02T01:13:51;20.20;;;3.70;;
31182;SDS011;17813;0.000;0.000;2022-11-02T01:16:20;26.03;;;3.40;;
31182;SDS011;17813;0.000;0.000;2022-11-02T01:18:50;4.13;;;2.83;;
31182;SDS011;17813;0.000;0.000;2022-11-02T01:21:22;29.93;;;3.57;;
31182;SDS011;17813;0.000;0.000;2022-11-02T01:23:50;5.10;;;3.00;;
31182;SDS011;17813;0.000;0.000;2022-11-02T01:26:19;24.27;;;3.60;;
31182;SDS011;17813;0.000;0.000;2022-11-02T01:28:46;6.63;;;2.50;;
31182;SDS011;17813;0.000;0.000;2022-11-02T01:31:14;24.07;;;3.73;;
31182;SDS011;17813;0.000;0.000;2022-11-02T01:33:42;9.97;;;2.77;;
31182;SDS011;17813;0.000;0.000;2022-11-02T01:36:11;3.40;;;2.83;;
31182;SDS011;17813;0.000;0.000;2022-11-02T01:38:40;2.73;;;2.53;;
31182;SDS011;17813;0.000;0.000;2022-11-02T01:41:11;4.40;;;2.83;;
31182;SDS011;17813;0.000;0.000;2022-11-02T01:43:45;3.53;;;2.77;;
31182;SDS011;17813;0.000;0.000;2022-11-02T01:46:17;2.70;;;2.50;;
31182;SDS011;17813;0.000;0.000;2022-11-02T01:51:37;3.70;;;2.27;;
31182;SDS011;17813;0.000;0.000;2022-11-02T01:54:17;2.97;;;2.60;;
31182;SDS011;17813;0.000;0.000;2022-11-02T01:56:51;4.60;;;2.63;;
31182;SDS011;17813;0.000;0.000;2022-11-02T01:59:33;5.13;;;2.67;;
31182;SDS011;17813;0.000;0.000;2022-11-02T02:02:09;4.10;;;3.00;;
31182;SDS011;17813;0.000;0.000;2022-11-02T02:04:43;3.47;;;2.73;;
31182;SDS011;17813;0.000;0.000;2022-11-02T02:07:14;5.73;;;3.07;;
31182;SDS011;17813;0.000;0.000;2022-11-02T02:09:42;3.27;;;2.60;;
31182;SDS011;17813;0.000;0.000;2022-11-02T02:12:10;3.53;;;3.00;;
31182;SDS011;17813;0.000;0.000;2022-11-02T02:14:40;7.80;;;3.17;;
31182;SDS011;17813;0.000;0.000;2022-11-02T02:17:25;3.10;;;2.60;;
31182;SDS011;17813;0.000;0.000;2022-11-02T02:20:06;5.83;;;2.43;;
31182;SDS011;17813;0.000;0.000;2022-11-02T02:28:40;3.37;;;2.60;;
31182;SDS011;17813;0.000;0.000;2022-11-02T02:34:19;3.07;;;2.70;;
31182;SDS011;17813;0.000;0.000;2022-11-02T02:37:09;3.23;;;2.63;;
31182;SDS011;17813;0.000;0.000;2022-11-02T02:43:12;3.10;;;2.80;;
31182;SDS011;17813;0.000;0.000;2022-11-02T02:45:54;2.97;;;2.27;;
31182;SDS011;17813;0.000;0.000;2022-11-02T02:48:28;5.50;;;2.80;;
31182;SDS011;17813;0.000;0.000;2022-11-02T02:50:58;5.80;;;2.87;;
31182;SDS011;17813;0.000;0.000;2022-11-02T02:53:36;3.13;;;2.50;;
31182;SDS011;17813;0.000;0.000;2022-11-02T02:56:14;6.73;;;3.70;;
31182;SDS011;17813;0.000;0.000;2022-11-02T03:01:21;3.77;;;2.70;;
31182;SDS011;17813;0.000;0.000;2022-11-02T03:03:50;5.53;;;2.80;;
31182;SDS011;17813;0.000;0.000;2022-11-02T03:08:52;5.10;;;2.40;;
31182;SDS011;17813;0.000;0.000;2022-11-02T03:11:29;3.57;;;2.37;;
31182;SDS011;17813;0.000;0.000;2022-11-02T03:16:37;5.93;;;2.73;;
31182;SDS011;17813;0.000;0.000;2022-11-02T03:21:59;4.13;;;2.60;;
31182;SDS011;17813;0.000;0.000;2022-11-02T03:24:35;6.67;;;3.17;;
31182;SDS011;17813;0.000;0.000;2022-11-02T03:27:47;5.53;;;2.87;;
31182;SDS011;17813;0.000;0.000;2022-11-02T03:30:14;6.10;;;3.03;;
31182;SDS011;17813;0.000;0.000;2022-11-02T03:36:17;4.77;;;2.90;;
31182;SDS011;17813;0.000;0.000;2022-11-02T03:38:34;4.03;;;2.80;;
31182;SDS011;17813;0.000;0.000;2022-11-02T03:41:14;4.67;;;2.70;;
31182;SDS011;17813;0.000;0.000;2022-11-02T03:43:44;2.87;;;2.37;;
31182;SDS011;17813;0.000;0.000;2022-11-02T03:46:22;4.40;;;2.70;;
31182;SDS011;17813;0.000;0.000;2022-11-02T03:48:51;3.57;;;2.50;;
31182;SDS011;17813;0.000;0.000;2022-11-02T03:51:21;4.23;;;2.30;;
31182;SDS011;17813;0.000;0.000;2022-11-02T03:56:47;6.63;;;2.80;;
31182;SDS011;17813;0.000;0.000;2022-11-02T03:59:18;5.20;;;2.63;;
31182;SDS011;17813;0.000;0.000;2022-11-02T04:01:46;4.90;;;2.60;;
31182;SDS011;17813;0.000;0.000;2022-11-02T04:04:15;6.67;;;2.50;;
31182;SDS011;17813;0.000;0.000;2022-11-02T04:06:43;6.87;;;2.67;;
31182;SDS011;17813;0.000;0.000;2022-11-02T04:09:13;6.97;;;2.77;;
31182;SDS011;17813;0.000;0.000;2022-11-02T04:11:41;4.30;;;2.40;;
31182;SDS011;17813;0.000;0.000;2022-11-02T04:14:27;4.73;;;2.67;;
31182;SDS011;17813;0.000;0.000;2022-11-02T04:17:03;5.73;;;2.50;;
31182;SDS011;17813;0.000;0.000;2022-11-02T04:19:49;3.80;;;2.40;;
31182;SDS011;17813;0.000;0.000;2022-11-02T04:22:17;4.37;;;2.70;;
31182;SDS011;17813;0.000;0.000;2022-11-02T04:25:03;6.23;;;2.63;;
31182;SDS011;17813;0.000;0.000;2022-11-02T04:27:41;6.50;;;2.40;;
31182;SDS011;17813;0.000;0.000;2022-11-02T04:30:09;3.67;;;2.40;;
31182;SDS011;17813;0.000;0.000;2022-11-02T04:32:39;4.53;;;2.63;;
31182;SDS011;17813;0.000;0.000;2022-11-02T04:35:29;6.13;;;2.77;;
31182;SDS011;17813;0.000;0.000;2022-11-02T04:37:57;4.63;;;2.30;;
31182;SDS011;17813;0.000;0.000;2022-11-02T04:40:43;5.30;;;2.50;;
31182;SDS011;17813;0.000;0.000;2022-11-02T04:43:09;5.30;;;2.53;;
31182;SDS011;17813;0.000;0.000;2022-11-02T04:45:37;6.63;;;2.63;;
31182;SDS011;17813;0.000;0.000;2022-11-02T04:48:05;5.67;;;2.83;;
31182;SDS011;17813;0.000;0.000;2022-11-02T04:50:32;3.77;;;2.23;;
31182;SDS011;17813;0.000;0.000;2022-11-02T04:53:00;2.73;;;2.20;;
31182;SDS011;17813;0.000;0.000;2022-11-02T04:55:29;5.57;;;2.23;;
31182;SDS011;17813;0.000;0.000;2022-11-02T04:57:56;5.87;;;2.40;;
31182;SDS011;17813;0.000;0.000;2022-11-02T05:00:23;4.03;;;2.43;;
31182;SDS011;17813;0.000;0.000;2022-11-02T05:02:50;4.67;;;2.27;;
31182;SDS011;17813;0.000;0.000;2022-11-02T05:05:17;4.23;;;2.57;;
31182;SDS011;17813;0.000;0.000;2022-11-02T05:07:44;4.60;;;2.40;;
31182;SDS011;17813;0.000;0.000;2022-11-02T05:10:11;4.43;;;2.57;;
31182;SDS011;17813;0.000;0.000;2022-11-02T05:12:38;3.43;;;2.33;;
31182;SDS011;17813;0.000;0.000;2022-11-02T05:15:05;4.10;;;2.40;;
31182;SDS011;17813;0.000;0.000;2022-11-02T05:17:32;5.10;;;2.70;;
31182;SDS011;17813;0.000;0.000;2022-11-02T05:19:58;7.10;;;2.40;;
31182;SDS011;17813;0.000;0.000;2022-11-02T05:22:26;5.53;;;2.40;;
31182;SDS011;17813;0.000;0.000;2022-11-02T05:24:52;4.87;;;2.80;;
31182;SDS011;17813;0.000;0.000;2022-11-02T05:27:19;5.30;;;3.10;;
31182;SDS011;17813;0.000;0.000;2022-11-02T05:29:47;5.70;;;3.00;;
31182;SDS011;17813;0.000;0.000;2022-11-02T05:32:14;5.30;;;3.50;;
31182;SDS011;17813;0.000;0.000;2022-11-02T05:34:40;6.80;;;3.77;;
31182;SDS011;17813;0.000;0.000;2022-11-02T05:37:07;5.93;;;3.23;;
31182;SDS011;17813;0.000;0.000;2022-11-02T05:39:34;5.93;;;3.23;;
31182;SDS011;17813;0.000;0.000;2022-11-02T05:42:01;4.63;;;3.37;;
31182;SDS011;17813;0.000;0.000;2022-11-02T05:44:28;4.90;;;3.23;;
31182;SDS011;17813;0.000;0.000;2022-11-02T05:46:56;5.27;;;3.60;;
31182;SDS011;17813;0.000;0.000;2022-11-02T05:49:25;7.17;;;3.57;;
31182;SDS011;17813;0.000;0.000;2022-11-02T05:51:52;7.93;;;3.87;;
31182;SDS011;17813;0.000;0.000;2022-11-02T05:54:19;6.77;;;3.37;;
31182;SDS011;17813;0.000;0.000;2022-11-02T05:56:47;5.27;;;3.17;;
31182;SDS011;17813;0.000;0.000;2022-11-02T05:59:14;5.27;;;3.10;;
31182;SDS011;17813;0.000;0.000;2022-11-02T06:01:43;5.57;;;3.10;;
31182;SDS011;17813;0.000;0.000;2022-11-02T06:04:10;4.53;;;2.70;;
31182;SDS011;17813;0.000;0.000;2022-11-02T06:06:37;8.23;;;3.67;;
31182;SDS011;17813;0.000;0.000;2022-11-02T06:09:04;7.70;;;3.60;;
31182;SDS011;17813;0.000;0.000;2022-11-02T06:11:34;4.43;;;3.07;;
31182;SDS011;17813;0.000;0.000;2022-11-02T06:14:01;4.60;;;2.83;;
31182;SDS011;17813;0.000;0.000;2022-11-02T06:16:29;4.17;;;3.00;;
31182;SDS011;17813;0.000;0.000;2022-11-02T06:18:56;7.70;;;3.50;;
31182;SDS011;17813;0.000;0.000;2022-11-02T06:21:23;5.67;;;3.40;;
31182;SDS011;17813;0.000;0.000;2022-11-02T06:23:50;6.47;;;3.50;;
31182;SDS011;17813;0.000;0.000;2022-11-02T06:26:17;6.67;;;3.50;;
31182;SDS011;17813;0.000;0.000;2022-11-02T06:28:44;7.97;;;3.20;;
31182;SDS011;17813;0.000;0.000;2022-11-02T06:31:11;5.97;;;3.23;;
31182;SDS011;17813;0.000;0.000;2022-11-02T06:33:38;8.00;;;3.10;;
31182;SDS011;17813;0.000;0.000;2022-11-02T06:36:05;6.13;;;3.40;;
31182;SDS011;17813;0.000;0.000;2022-11-02T06:38:32;7.90;;;3.40;;
31182;SDS011;17813;0.000;0.000;2022-11-02T06:41:01;9.87;;;3.50;;
31182;SDS011;17813;0.000;0.000;2022-11-02T06:43:31;6.47;;;3.37;;
31182;SDS011;17813;0.000;0.000;2022-11-02T06:46:01;6.13;;;3.50;;
31182;SDS011;17813;0.000;0.000;2022-11-02T06:48:28;8.03;;;3.43;;
31182;SDS011;17813;0.000;0.000;2022-11-02T06:50:55;10.60;;;3.63;;
31182;SDS011;17813;0.000;0.000;2022-11-02T06:53:23;7.37;;;3.53;;
31182;SDS011;17813;0.000;0.000;2022-11-02T06:55:50;9.67;;;3.60;;
31182;SDS011;17813;0.000;0.000;2022-11-02T06:58:21;12.30;;;4.53;;
31182;SDS011;17813;0.000;0.000;2022-11-02T07:00:50;9.67;;;4.03;;
31182;SDS011;17813;0.000;0.000;2022-11-02T07:03:23;7.90;;;3.70;;
31182;SDS011;17813;0.000;0.000;2022-11-02T07:05:50;7.57;;;3.13;;
31182;SDS011;17813;0.000;0.000;2022-11-02T07:08:17;8.50;;;3.40;;
31182;SDS011;17813;0.000;0.000;2022-11-02T07:10:45;8.50;;;3.47;;
31182;SDS011;17813;0.000;0.000;2022-11-02T07:13:13;10.67;;;3.70;;
31182;SDS011;17813;0.000;0.000;2022-11-02T07:15:40;7.17;;;3.30;;
31182;SDS011;17813;0.000;0.000;2022-11-02T07:18:07;7.87;;;3.20;;
31182;SDS011;17813;0.000;0.000;2022-11-02T07:20:34;9.33;;;3.80;;
31182;SDS011;17813;0.000;0.000;2022-11-02T07:23:01;8.20;;;3.43;;
31182;SDS011;17813;0.000;0.000;2022-11-02T07:25:30;8.43;;;3.70;;
31182;SDS011;17813;0.000;0.000;2022-11-02T07:27:59;8.37;;;3.37;;
31182;SDS011;17813;0.000;0.000;2022-11-02T07:30:31;7.50;;;3.10;;
31182;SDS011;17813;0.000;0.000;2022-11-02T07:32:59;8.60;;;3.27;;
31182;SDS011;17813;0.000;0.000;2022-11-02T07:35:32;7.40;;;3.07;;
31182;SDS011;17813;0.000;0.000;2022-11-02T07:38:00;9.53;;;2.80;;
31182;SDS011;17813;0.000;0.000;2022-11-02T07:40:31;9.40;;;3.20;;
31182;SDS011;17813;0.000;0.000;2022-11-02T07:42:59;5.90;;;2.60;;
31182;SDS011;17813;0.000;0.000;2022-11-02T07:45:26;7.93;;;2.83;;
31182;SDS011;17813;0.000;0.000;2022-11-02T07:47:54;6.90;;;2.73;;
31182;SDS011;17813;0.000;0.000;2022-11-02T07:50:22;8.17;;;3.20;;
31182;SDS011;17813;0.000;0.000;2022-11-02T07:52:55;4.83;;;2.30;;
31182;SDS011;17813;0.000;0.000;2022-11-02T07:55:24;7.03;;;2.67;;
31182;SDS011;17813;0.000;0.000;2022-11-02T07:58:02;7.00;;;2.57;;
31182;SDS011;17813;0.000;0.000;2022-11-02T08:00:35;5.20;;;2.63;;
31182;SDS011;17813;0.000;0.000;2022-11-02T08:03:03;3.73;;;2.20;;
31182;SDS011;17813;0.000;0.000;2022-11-02T08:05:35;6.80;;;2.47;;
31182;SDS011;17813;0.000;0.000;2022-11-02T08:08:05;6.97;;;2.83;;
31182;SDS011;17813;0.000;0.000;2022-11-02T08:10:35;6.87;;;2.43;;
31182;SDS011;17813;0.000;0.000;2022-11-02T08:13:02;6.40;;;2.43;;
31182;SDS011;17813;0.000;0.000;2022-11-02T08:15:32;7.53;;;2.60;;
31182;SDS011;17813;0.000;0.000;2022-11-02T08:18:01;8.83;;;2.70;;
31182;SDS011;17813;0.000;0.000;2022-11-02T08:20:30;4.60;;;2.20;;
31182;SDS011;17813;0.000;0.000;2022-11-02T08:22:59;6.60;;;2.50;;
31182;SDS011;17813;0.000;0.000;2022-11-02T08:25:28;7.17;;;2.80;;
31182;SDS011;17813;0.000;0.000;2022-11-02T08:27:57;6.03;;;2.23;;
31182;SDS011;17813;0.000;0.000;2022-11-02T08:30:26;5.47;;;2.30;;
31182;SDS011;17813;0.000;0.000;2022-11-02T08:32:55;5.83;;;2.23;;
31182;SDS011;17813;0.000;0.000;2022-11-02T08:35:33;5.63;;;2.20;;
31182;SDS011;17813;0.000;0.000;2022-11-02T08:38:02;5.53;;;2.50;;
31182;SDS011;17813;0.000;0.000;2022-11-02T08:40:30;5.57;;;2.40;;
31182;SDS011;17813;0.000;0.000;2022-11-02T08:43:02;5.40;;;2.17;;
31182;SDS011;17813;0.000;0.000;2022-11-02T08:45:32;5.07;;;1.97;;
31182;SDS011;17813;0.000;0.000;2022-11-02T08:48:05;5.30;;;2.10;;
31182;SDS011;17813;0.000;0.000;2022-11-02T08:50:34;4.93;;;2.10;;
31182;SDS011;17813;0.000;0.000;2022-11-02T08:53:02;4.83;;;2.07;;
31182;SDS011;17813;0.000;0.000;2022-11-02T08:55:32;3.87;;;1.80;;
31182;SDS011;17813;0.000;0.000;2022-11-02T08:58:00;5.27;;;2.00;;
31182;SDS011;17813;0.000;0.000;2022-11-02T09:00:29;4.53;;;2.23;;
31182;SDS011;17813;0.000;0.000;2022-11-02T09:03:07;5.20;;;1.90;;
31182;SDS011;17813;0.000;0.000;2022-11-02T09:05:39;4.87;;;2.17;;
31182;SDS011;17813;0.000;0.000;2022-11-02T09:08:17;6.37;;;2.13;;
31182;SDS011;17813;0.000;0.000;2022-11-02T09:10:48;4.37;;;2.00;;
31182;SDS011;17813;0.000;0.000;2022-11-02T09:13:18;3.57;;;1.53;;
31182;SDS011;17813;0.000;0.000;2022-11-02T09:15:50;5.23;;;2.17;;
31182;SDS011;17813;0.000;0.000;2022-11-02T09:18:18;4.60;;;1.90;;
31182;SDS011;17813;0.000;0.000;2022-11-02T09:20:46;6.45;;;2.10;;
31182;SDS011;17813;0.000;0.000;2022-11-02T09:23:16;3.67;;;1.70;;
31182;SDS011;17813;0.000;0.000;2022-11-02T09:25:45;3.78;;;1.65;;
31182;SDS011;17813;0.000;0.000;2022-11-02T09:28:13;6.07;;;1.80;;
31182;SDS011;17813;0.000;0.000;2022-11-02T09:30:41;4.75;;;1.95;;
31182;SDS011;17813;0.000;0.000;2022-11-02T09:33:10;4.15;;;1.85;;
31182;SDS011;17813;0.000;0.000;2022-11-02T09:35:39;5.13;;;1.67;;
31182;SDS011;17813;0.000;0.000;2022-11-02T09:38:07;4.00;;;2.05;;
31182;SDS011;17813;0.000;0.000;2022-11-02T09:40:39;5.03;;;1.90;;
31182;SDS011;17813;0.000;0.000;2022-11-02T09:51:27;3.30;;;1.60;;
31182;SDS011;17813;0.000;0.000;2022-11-02T09:54:07;3.30;;;1.80;;
31182;SDS011;17813;0.000;0.000;2022-11-02T09:56:51;2.78;;;1.50;;
31182;SDS011;17813;0.000;0.000;2022-11-02T09:59:27;2.53;;;1.50;;
31182;SDS011;17813;0.000;0.000;2022-11-02T10:08:06;3.53;;;1.80;;
31182;SDS011;17813;0.000;0.000;2022-11-02T10:15:49;5.20;;;1.80;;
31182;SDS011;17813;0.000;0.000;2022-11-02T10:18:25;2.45;;;1.30;;
31182;SDS011;17813;0.000;0.000;2022-11-02T10:20:55;2.47;;;1.20;;
31182;SDS011;17813;0.000;0.000;2022-11-02T10:26:01;3.15;;;1.58;;
31182;SDS011;17813;0.000;0.000;2022-11-02T10:28:29;3.42;;;1.63;;
31182;SDS011;17813;0.000;0.000;2022-11-02T10:31:14;3.60;;;1.73;;
31182;SDS011;17813;0.000;0.000;2022-11-02T10:33:52;4.28;;;1.60;;
31182;SDS011;17813;0.000;0.000;2022-11-02T10:36:32;3.38;;;1.75;;
31182;SDS011;17813;0.000;0.000;2022-11-02T10:45:19;4.70;;;1.83;;
31182;SDS011;17813;0.000;0.000;2022-11-02T10:48:21;5.00;;;1.65;;
31182;SDS011;17813;0.000;0.000;2022-11-02T10:51:09;3.80;;;1.63;;
31182;SDS011;17813;0.000;0.000;2022-11-02T10:53:38;3.53;;;1.63;;
31182;SDS011;17813;0.000;0.000;2022-11-02T10:56:23;3.95;;;1.50;;
31182;SDS011;17813;0.000;0.000;2022-11-02T11:01:43;4.07;;;1.50;;
31182;SDS011;17813;0.000;0.000;2022-11-02T11:04:29;3.08;;;1.52;;
31182;SDS011;17813;0.000;0.000;2022-11-02T11:07:22;2.78;;;1.65;;
31182;SDS011;17813;0.000;0.000;2022-11-02T11:09:50;2.67;;;1.50;;
31182;SDS011;17813;0.000;0.000;2022-11-02T11:12:22;2.95;;;1.30;;
31182;SDS011;17813;0.000;0.000;2022-11-02T11:15:00;2.35;;;1.27;;
31182;SDS011;17813;0.000;0.000;2022-11-02T11:17:40;2.42;;;1.40;;
31182;SDS011;17813;0.000;0.000;2022-11-02T11:20:22;3.50;;;1.60;;
31182;SDS011;17813;0.000;0.000;2022-11-02T11:25:37;3.30;;;1.45;;
31182;SDS011;17813;0.000;0.000;2022-11-02T11:28:26;3.20;;;1.50;;
31182;SDS011;17813;0.000;0.000;2022-11-02T11:31:01;3.78;;;1.60;;
31182;SDS011;17813;0.000;0.000;2022-11-02T11:33:31;2.40;;;1.30;;
31182;SDS011;17813;0.000;0.000;2022-11-02T11:36:08;5.20;;;1.65;;
31182;SDS011;17813;0.000;0.000;2022-11-02T11:38:36;3.55;;;1.30;;
31182;SDS011;17813;0.000;0.000;2022-11-02T11:41:11;3.80;;;1.50;;
31182;SDS011;17813;0.000;0.000;2022-11-02T11:43:38;5.63;;;1.60;;
31182;SDS011;17813;0.000;0.000;2022-11-02T11:46:06;5.15;;;1.50;;
31182;SDS011;17813;0.000;0.000;2022-11-02T11:48:54;4.03;;;1.40;;
31182;SDS011;17813;0.000;0.000;2022-11-02T11:51:34;5.68;;;1.67;;
31182;SDS011;17813;0.000;0.000;2022-11-02T11:54:20;2.60;;;1.20;;
31182;SDS011;17813;0.000;0.000;2022-11-02T11:56:48;4.20;;;1.53;;
31182;SDS011;17813;0.000;0.000;2022-11-02T11:59:26;4.17;;;1.47;;
31182;SDS011;17813;0.000;0.000;2022-11-02T12:01:57;4.37;;;1.50;;
31182;SDS011;17813;0.000;0.000;2022-11-02T12:04:25;3.77;;;1.50;;
31182;SDS011;17813;0.000;0.000;2022-11-02T12:18:20;3.80;;;1.63;;
31182;SDS011;17813;0.000;0.000;2022-11-02T12:27:30;3.63;;;1.50;;
31182;SDS011;17813;0.000;0.000;2022-11-02T12:49:01;4.80;;;1.60;;
31182;SDS011;17813;0.000;0.000;2022-11-02T12:54:25;2.90;;;1.40;;
31182;SDS011;17813;0.000;0.000;2022-11-02T12:57:16;2.50;;;1.30;;
31182;SDS011;17813;0.000;0.000;2022-11-02T12:59:46;3.50;;;1.50;;
31182;SDS011;17813;0.000;0.000;2022-11-02T13:02:21;3.50;;;1.37;;
31182;SDS011;17813;0.000;0.000;2022-11-02T13:07:59;4.53;;;1.30;;
31182;SDS011;17813;0.000;0.000;2022-11-02T13:10:32;3.83;;;1.33;;
31182;SDS011;17813;0.000;0.000;2022-11-02T13:13:07;2.87;;;1.40;;
31182;SDS011;17813;0.000;0.000;2022-11-02T13:15:43;4.67;;;1.53;;
31182;SDS011;17813;0.000;0.000;2022-11-02T13:20:52;3.57;;;1.40;;
31182;SDS011;17813;0.000;0.000;2022-11-02T13:26:28;3.47;;;1.30;;
31182;SDS011;17813;0.000;0.000;2022-11-02T13:31:43;5.67;;;1.30;;
31182;SDS011;17813;0.000;0.000;2022-11-02T13:34:39;3.57;;;1.37;;
31182;SDS011;17813;0.000;0.000;2022-11-02T13:37:13;4.20;;;1.40;;
31182;SDS011;17813;0.000;0.000;2022-11-02T13:39:56;3.70;;;1.40;;
31182;SDS011;17813;0.000;0.000;2022-11-02T13:42:40;1.90;;;1.23;;
31182;SDS011;17813;0.000;0.000;2022-11-02T13:45:34;4.07;;;1.37;;
31182;SDS011;17813;0.000;0.000;2022-11-02T13:50:59;4.60;;;1.53;;
31182;SDS011;17813;0.000;0.000;2022-11-02T13:53:42;3.47;;;1.20;;
31182;SDS011;17813;0.000;0.000;2022-11-02T13:56:24;3.57;;;1.10;;
31182;SDS011;17813;0.000;0.000;2022-11-02T13:58:56;2.97;;;1.13;;
31182;SDS011;17813;0.000;0.000;2022-11-02T14:01:34;2.57;;;1.17;;
31182;SDS011;17813;0.000;0.000;2022-11-02T14:04:09;3.73;;;1.37;;
31182;SDS011;17813;0.000;0.000;2022-11-02T14:06:56;3.33;;;1.30;;
31182;SDS011;17813;0.000;0.000;2022-11-02T14:09:33;3.20;;;1.17;;
31182;SDS011;17813;0.000;0.000;2022-11-02T14:28:32;3.10;;;1.00;;
31182;SDS011;17813;0.000;0.000;2022-11-02T14:36:56;2.43;;;1.10;;
31182;SDS011;17813;0.000;0.000;2022-11-02T14:39:40;4.00;;;1.40;;
31182;SDS011;17813;0.000;0.000;2022-11-02T14:48:28;3.00;;;1.17;;
31182;SDS011;17813;0.000;0.000;2022-11-02T14:51:01;4.07;;;1.30;;
31182;SDS011;17813;0.000;0.000;2022-11-02T14:53:34;2.27;;;1.17;;
31182;SDS011;17813;0.000;0.000;2022-11-02T14:56:02;3.93;;;1.60;;
31182;SDS011;17813;0.000;0.000;2022-11-02T14:58:34;3.73;;;1.60;;
31182;SDS011;17813;0.000;0.000;2022-11-02T15:01:04;2.87;;;1.40;;
31182;SDS011;17813;0.000;0.000;2022-11-02T15:03:38;3.10;;;1.27;;
31182;SDS011;17813;0.000;0.000;2022-11-02T15:08:54;3.70;;;1.50;;
31182;SDS011;17813;0.000;0.000;2022-11-02T15:11:42;2.60;;;1.20;;
31182;SDS011;17813;0.000;0.000;2022-11-02T15:16:57;5.80;;;1.20;;
31182;SDS011;17813;0.000;0.000;2022-11-02T15:19:38;2.80;;;2.03;;
31182;SDS011;17813;0.000;0.000;2022-11-02T15:25:32;2.20;;;1.20;;
31182;SDS011;17813;0.000;0.000;2022-11-02T15:27:56;2.63;;;1.30;;
31182;SDS011;17813;0.000;0.000;2022-11-02T15:33:42;3.40;;;1.63;;
31182;SDS011;17813;0.000;0.000;2022-11-02T15:36:36;6.23;;;2.30;;
31182;SDS011;17813;0.000;0.000;2022-11-02T15:39:07;4.10;;;2.30;;
31182;SDS011;17813;0.000;0.000;2022-11-02T15:50:15;2.33;;;1.70;;
31182;SDS011;17813;0.000;0.000;2022-11-02T15:55:52;4.30;;;1.77;;
31182;SDS011;17813;0.000;0.000;2022-11-02T16:01:32;7.60;;;2.00;;
31182;SDS011;17813;0.000;0.000;2022-11-02T16:04:06;7.30;;;2.13;;
31182;SDS011;17813;0.000;0.000;2022-11-02T16:06:42;4.03;;;2.70;;
31182;SDS011;17813;0.000;0.000;2022-11-02T16:12:14;5.53;;;3.73;;
31182;SDS011;17813;0.000;0.000;2022-11-02T16:15:09;6.93;;;3.20;;
31182;SDS011;17813;0.000;0.000;2022-11-02T16:17:41;4.87;;;3.00;;
31182;SDS011;17813;0.000;0.000;2022-11-02T16:22:54;5.07;;;2.60;;
31182;SDS011;17813;0.000;0.000;2022-11-02T16:28:01;5.33;;;2.30;;
31182;SDS011;17813;0.000;0.000;2022-11-02T16:30:41;7.87;;;3.50;;
31182;SDS011;17813;0.000;0.000;2022-11-02T16:33:10;4.97;;;3.00;;
31182;SDS011;17813;0.000;0.000;2022-11-02T16:35:38;4.10;;;2.37;;
31182;SDS011;17813;0.000;0.000;2022-11-02T16:38:05;4.20;;;2.27;;
31182;SDS011;17813;0.000;0.000;2022-11-02T16:40:33;4.33;;;2.10;;
31182;SDS011;17813;0.000;0.000;2022-11-02T16:43:02;3.17;;;1.97;;
31182;SDS011;17813;0.000;0.000;2022-11-02T16:45:33;4.43;;;2.07;;
31182;SDS011;17813;0.000;0.000;2022-11-02T16:48:01;5.57;;;2.30;;
31182;SDS011;17813;0.000;0.000;2022-11-02T16:50:39;7.67;;;2.57;;
31182;SDS011;17813;0.000;0.000;2022-11-02T16:53:25;4.00;;;2.40;;
31182;SDS011;17813;0.000;0.000;2022-11-02T16:55:54;5.20;;;3.00;;
31182;SDS011;17813;0.000;0.000;2022-11-02T16:58:26;6.83;;;3.23;;
31182;SDS011;17813;0.000;0.000;2022-11-02T17:03:28;9.40;;;3.40;;
31182;SDS011;17813;0.000;0.000;2022-11-02T17:05:57;4.33;;;2.97;;
31182;SDS011;17813;0.000;0.000;2022-11-02T17:08:28;6.43;;;2.87;;
31182;SDS011;17813;0.000;0.000;2022-11-02T17:10:58;6.23;;;3.00;;
31182;SDS011;17813;0.000;0.000;2022-11-02T17:13:30;12.33;;;3.57;;
31182;SDS011;17813;0.000;0.000;2022-11-02T17:16:10;8.67;;;4.57;;
31182;SDS011;17813;0.000;0.000;2022-11-02T17:18:37;10.03;;;5.43;;
31182;SDS011;17813;0.000;0.000;2022-11-02T17:21:18;9.23;;;5.20;;
31182;SDS011;17813;0.000;0.000;2022-11-02T17:23:48;8.17;;;4.83;;
31182;SDS011;17813;0.000;0.000;2022-11-02T17:29:00;9.07;;;5.13;;
31182;SDS011;17813;0.000;0.000;2022-11-02T17:31:33;8.50;;;5.00;;
31182;SDS011;17813;0.000;0.000;2022-11-02T17:34:16;8.97;;;4.93;;
31182;SDS011;17813;0.000;0.000;2022-11-02T17:36:44;8.90;;;4.77;;
31182;SDS011;17813;0.000;0.000;2022-11-02T17:39:17;6.40;;;4.50;;
31182;SDS011;17813;0.000;0.000;2022-11-02T17:41:46;7.13;;;4.73;;
31182;SDS011;17813;0.000;0.000;2022-11-02T17:44:38;11.10;;;5.20;;
31182;SDS011;17813;0.000;0.000;2022-11-02T17:47:10;9.80;;;6.00;;
31182;SDS011;17813;0.000;0.000;2022-11-02T17:49:37;8.70;;;4.90;;
31182;SDS011;17813;0.000;0.000;2022-11-02T17:52:05;8.87;;;5.10;;
31182;SDS011;17813;0.000;0.000;2022-11-02T17:54:32;11.70;;;5.60;;
31182;SDS011;17813;0.000;0.000;2022-11-02T17:57:00;8.80;;;5.47;;
31182;SDS011;17813;0.000;0.000;2022-11-02T17:59:30;12.10;;;5.60;;
31182;SDS011;17813;0.000;0.000;2022-11-02T18:01:57;11.57;;;6.83;;
31182;SDS011;17813;0.000;0.000;2022-11-02T18:04:23;9.93;;;6.50;;
31182;SDS011;17813;0.000;0.000;2022-11-02T18:06:51;9.43;;;6.83;;
31182;SDS011;17813;0.000;0.000;2022-11-02T18:09:18;9.47;;;6.00;;
31182;SDS011;17813;0.000;0.000;2022-11-02T18:11:50;10.13;;;6.13;;
31182;SDS011;17813;0.000;0.000;2022-11-02T18:14:22;9.57;;;5.50;;
31182;SDS011;17813;0.000;0.000;2022-11-02T18:16:49;8.33;;;5.20;;
31182;SDS011;17813;0.000;0.000;2022-11-02T18:19:17;7.27;;;4.80;;
31182;SDS011;17813;0.000;0.000;2022-11-02T18:21:45;6.80;;;5.10;;
31182;SDS011;17813;0.000;0.000;2022-11-02T18:24:11;7.50;;;4.77;;
31182;SDS011;17813;0.000;0.000;2022-11-02T18:26:38;7.80;;;5.20;;
31182;SDS011;17813;0.000;0.000;2022-11-02T18:29:06;6.13;;;4.57;;
31182;SDS011;17813;0.000;0.000;2022-11-02T18:31:35;6.43;;;5.07;;
31182;SDS011;17813;0.000;0.000;2022-11-02T18:34:02;8.33;;;5.43;;
31182;SDS011;17813;0.000;0.000;2022-11-02T18:36:29;7.93;;;4.90;;
31182;SDS011;17813;0.000;0.000;2022-11-02T18:38:56;8.63;;;5.30;;